sensor_id;sensor_type;location;lat;lon;timestamp;temperature;humidity
9544;DHT22;30418;51.45933468;7.33152330;2024-03-08T00:00:32;8.70;53.80
9544;DHT22;30418;51.45933468;7.33152330;2024-03-08T00:03:01;8.70;53.80
9544;DHT22;30418;51.45933468;7.33152330;2024-03-08T00:05:33;8.70;53.80
9544;DHT22;30418;51.45933468;7.33152330;2024-03-08T00:08:01;8.60;53.60
9544;DHT22;30418;51.45933468;7.33152330;2024-03-08T00:10:30;8.70;53.70
9544;DHT22;30418;51.45933468;7.33152330;2024-03-08T00:12:59;8.60;53.70
9544;DHT22;30418;51.45933468;7.33152330;2024-03-08T00:15:27;8.60;53.60
9544;DHT22;30418;51.45933468;7.33152330;2024-03-08T00:17:56;8.60;53.50
9544;DHT22;30418;51.45933468;7.33152330;2024-03-08T00:20:25;8.60;53.60
9544;DHT22;30418;51.45933468;7.33152330;2024-03-08T00:22:56;8.60;53.60
9544;DHT22;30418;51.45933468;7.33152330;2024-03-08T00:25:25;8.50;53.50
9544;DHT22;30418;51.45933468;7.33152330;2024-03-08T00:27:54;8.50;53.60
9544;DHT22;30418;51.45933468;7.33152330;2024-03-08T00:30:23;8.50;53.70
9544;DHT22;30418;51.45933468;7.33152330;2024-03-08T00:32:52;8.50;53.70
9544;DHT22;30418;51.45933468;7.33152330;2024-03-08T00:35:21;8.40;53.60
9544;DHT22;30418;51.45933468;7.33152330;2024-03-08T00:37:49;8.40;53.60
9544;DHT22;30418;51.45933468;7.33152330;2024-03-08T00:40:19;8.50;53.70
9544;DHT22;30418;51.45933468;7.33152330;2024-03-08T00:42:49;8.40;53.70
9544;DHT22;30418;51.45933468;7.33152330;2024-03-08T00:45:18;8.40;53.60
9544;DHT22;30418;51.45933468;7.33152330;2024-03-08T00:47:46;8.40;53.60
9544;DHT22;30418;51.45933468;7.33152330;2024-03-08T00:50:15;8.40;53.50
9544;DHT22;30418;51.45933468;7.33152330;2024-03-08T00:52:44;8.40;53.60
9544;DHT22;30418;51.45933468;7.33152330;2024-03-08T00:55:13;8.40;53.50
9544;DHT22;30418;51.45933468;7.33152330;2024-03-08T00:57:43;8.40;53.60
9544;DHT22;30418;51.45933468;7.33152330;2024-03-08T01:00:12;8.30;53.50
9544;DHT22;30418;51.45933468;7.33152330;2024-03-08T01:02:42;8.30;53.50
9544;DHT22;30418;51.45933468;7.33152330;2024-03-08T01:05:11;8.30;53.50
9544;DHT22;30418;51.45933468;7.33152330;2024-03-08T01:07:39;8.30;53.50
9544;DHT22;30418;51.45933468;7.33152330;2024-03-08T01:10:09;8.30;53.50
9544;DHT22;30418;51.45933468;7.33152330;2024-03-08T01:12:38;8.30;53.50
9544;DHT22;30418;51.45933468;7.33152330;2024-03-08T01:15:10;8.30;53.50
9544;DHT22;30418;51.45933468;7.33152330;2024-03-08T01:17:39;8.30;53.30
9544;DHT22;30418;51.45933468;7.33152330;2024-03-08T01:20:09;8.20;53.30
9544;DHT22;30418;51.45933468;7.33152330;2024-03-08T01:22:40;8.20;53.30
9544;DHT22;30418;51.45933468;7.33152330;2024-03-08T01:25:09;8.20;53.30
9544;DHT22;30418;51.45933468;7.33152330;2024-03-08T01:27:37;8.20;53.30
9544;DHT22;30418;51.45933468;7.33152330;2024-03-08T01:30:06;8.20;53.40
9544;DHT22;30418;51.45933468;7.33152330;2024-03-08T01:32:38;8.20;53.40
9544;DHT22;30418;51.45933468;7.33152330;2024-03-08T01:35:07;8.10;53.30
9544;DHT22;30418;51.45933468;7.33152330;2024-03-08T01:37:37;8.10;53.30
9544;DHT22;30418;51.45933468;7.33152330;2024-03-08T01:40:07;8.10;53.40
9544;DHT22;30418;51.45933468;7.33152330;2024-03-08T01:42:36;8.10;53.30
9544;DHT22;30418;51.45933468;7.33152330;2024-03-08T01:45:06;8.10;53.40
9544;DHT22;30418;51.45933468;7.33152330;2024-03-08T01:47:35;8.10;53.40
9544;DHT22;30418;51.45933468;7.33152330;2024-03-08T01:50:07;8.10;53.40
9544;DHT22;30418;51.45933468;7.33152330;2024-03-08T01:52:36;8.10;53.40
9544;DHT22;30418;51.45933468;7.33152330;2024-03-08T01:55:06;8.00;53.20
9544;DHT22;30418;51.45933468;7.33152330;2024-03-08T01:57:35;8.00;53.30
9544;DHT22;30418;51.45933468;7.33152330;2024-03-08T02:00:07;8.00;53.30
9544;DHT22;30418;51.45933468;7.33152330;2024-03-08T02:02:42;8.00;53.30
9544;DHT22;30418;51.45933468;7.33152330;2024-03-08T02:05:11;8.00;53.20
9544;DHT22;30418;51.45933468;7.33152330;2024-03-08T02:07:41;8.00;53.90
9544;DHT22;30418;51.45933468;7.33152330;2024-03-08T02:10:11;7.90;53.20
9544;DHT22;30418;51.45933468;7.33152330;2024-03-08T02:12:40;7.90;53.30
9544;DHT22;30418;51.45933468;7.33152330;2024-03-08T02:15:09;7.90;53.40
9544;DHT22;30418;51.45933468;7.33152330;2024-03-08T02:17:40;7.90;53.40
9544;DHT22;30418;51.45933468;7.33152330;2024-03-08T02:20:10;7.90;53.30
9544;DHT22;30418;51.45933468;7.33152330;2024-03-08T02:22:42;7.90;53.40
9544;DHT22;30418;51.45933468;7.33152330;2024-03-08T02:25:11;7.90;53.40
9544;DHT22;30418;51.45933468;7.33152330;2024-03-08T02:27:40;7.90;53.40
9544;DHT22;30418;51.45933468;7.33152330;2024-03-08T02:30:10;7.90;53.40
9544;DHT22;30418;51.45933468;7.33152330;2024-03-08T02:32:39;7.90;53.50
9544;DHT22;30418;51.45933468;7.33152330;2024-03-08T02:35:08;7.90;53.50
9544;DHT22;30418;51.45933468;7.33152330;2024-03-08T02:37:37;7.80;53.40
9544;DHT22;30418;51.45933468;7.33152330;2024-03-08T02:40:08;7.90;53.40
9544;DHT22;30418;51.45933468;7.33152330;2024-03-08T02:42:39;7.80;53.40
9544;DHT22;30418;51.45933468;7.33152330;2024-03-08T02:45:08;7.80;53.40
9544;DHT22;30418;51.45933468;7.33152330;2024-03-08T02:47:37;7.80;53.30
9544;DHT22;30418;51.45933468;7.33152330;2024-03-08T02:50:06;7.80;53.40
9544;DHT22;30418;51.45933468;7.33152330;2024-03-08T02:52:35;7.80;53.40
9544;DHT22;30418;51.45933468;7.33152330;2024-03-08T02:55:05;7.80;53.40
9544;DHT22;30418;51.45933468;7.33152330;2024-03-08T02:57:39;7.80;53.50
9544;DHT22;30418;51.45933468;7.33152330;2024-03-08T03:00:09;7.70;53.40
9544;DHT22;30418;51.45933468;7.33152330;2024-03-08T03:02:38;7.70;53.40
9544;DHT22;30418;51.45933468;7.33152330;2024-03-08T03:05:07;7.70;53.40
9544;DHT22;30418;51.45933468;7.33152330;2024-03-08T03:07:36;7.70;53.40
9544;DHT22;30418;51.45933468;7.33152330;2024-03-08T03:10:08;7.70;53.40
9544;DHT22;30418;51.45933468;7.33152330;2024-03-08T03:12:36;7.70;53.40
9544;DHT22;30418;51.45933468;7.33152330;2024-03-08T03:15:05;7.70;53.40
9544;DHT22;30418;51.45933468;7.33152330;2024-03-08T03:17:35;7.70;53.40
9544;DHT22;30418;51.45933468;7.33152330;2024-03-08T03:20:05;7.60;53.30
9544;DHT22;30418;51.45933468;7.33152330;2024-03-08T03:22:37;7.70;53.50
9544;DHT22;30418;51.45933468;7.33152330;2024-03-08T03:25:09;7.70;54.10
9544;DHT22;30418;51.45933468;7.33152330;2024-03-08T03:27:39;7.70;53.40
9544;DHT22;30418;51.45933468;7.33152330;2024-03-08T03:30:09;7.60;53.30
9544;DHT22;30418;51.45933468;7.33152330;2024-03-08T03:32:48;7.70;53.40
9544;DHT22;30418;51.45933468;7.33152330;2024-03-08T03:35:18;7.60;53.40
9544;DHT22;30418;51.45933468;7.33152330;2024-03-08T03:37:48;7.60;53.40
9544;DHT22;30418;51.45933468;7.33152330;2024-03-08T03:40:30;7.60;53.30
9544;DHT22;30418;51.45933468;7.33152330;2024-03-08T03:42:59;7.60;53.30
9544;DHT22;30418;51.45933468;7.33152330;2024-03-08T03:45:28;7.60;53.30
9544;DHT22;30418;51.45933468;7.33152330;2024-03-08T03:48:02;7.60;53.30
9544;DHT22;30418;51.45933468;7.33152330;2024-03-08T03:50:32;7.50;53.30
9544;DHT22;30418;51.45933468;7.33152330;2024-03-08T03:53:03;7.50;53.40
9544;DHT22;30418;51.45933468;7.33152330;2024-03-08T03:55:36;7.50;53.50
9544;DHT22;30418;51.45933468;7.33152330;2024-03-08T03:58:07;7.50;54.10
9544;DHT22;30418;51.45933468;7.33152330;2024-03-08T04:00:38;7.50;53.50
9544;DHT22;30418;51.45933468;7.33152330;2024-03-08T04:03:07;7.50;53.50
9544;DHT22;30418;51.45933468;7.33152330;2024-03-08T04:05:36;7.50;53.50
9544;DHT22;30418;51.45933468;7.33152330;2024-03-08T04:08:06;7.40;53.50
9544;DHT22;30418;51.45933468;7.33152330;2024-03-08T04:10:36;7.40;53.50
9544;DHT22;30418;51.45933468;7.33152330;2024-03-08T04:13:04;7.40;53.50
9544;DHT22;30418;51.45933468;7.33152330;2024-03-08T04:15:33;7.40;53.50
9544;DHT22;30418;51.45933468;7.33152330;2024-03-08T04:18:01;7.40;53.50
9544;DHT22;30418;51.45933468;7.33152330;2024-03-08T04:20:30;7.40;53.50
9544;DHT22;30418;51.45933468;7.33152330;2024-03-08T04:22:59;7.30;53.50
9544;DHT22;30418;51.45933468;7.33152330;2024-03-08T04:25:27;7.30;53.50
9544;DHT22;30418;51.45933468;7.33152330;2024-03-08T04:27:57;7.30;53.50
9544;DHT22;30418;51.45933468;7.33152330;2024-03-08T04:30:26;7.30;53.60
9544;DHT22;30418;51.45933468;7.33152330;2024-03-08T04:32:55;7.30;53.60
9544;DHT22;30418;51.45933468;7.33152330;2024-03-08T04:35:24;7.30;53.70
9544;DHT22;30418;51.45933468;7.33152330;2024-03-08T04:37:52;7.30;53.70
9544;DHT22;30418;51.45933468;7.33152330;2024-03-08T04:40:21;7.20;53.60
9544;DHT22;30418;51.45933468;7.33152330;2024-03-08T04:42:50;7.30;53.70
9544;DHT22;30418;51.45933468;7.33152330;2024-03-08T04:45:20;7.20;53.60
9544;DHT22;30418;51.45933468;7.33152330;2024-03-08T04:47:49;7.20;53.60
9544;DHT22;30418;51.45933468;7.33152330;2024-03-08T04:50:19;7.20;53.60
9544;DHT22;30418;51.45933468;7.33152330;2024-03-08T04:52:48;7.10;53.50
9544;DHT22;30418;51.45933468;7.33152330;2024-03-08T04:55:16;7.10;53.60
9544;DHT22;30418;51.45933468;7.33152330;2024-03-08T04:57:48;7.10;53.60
9544;DHT22;30418;51.45933468;7.33152330;2024-03-08T05:00:17;7.00;53.50
9544;DHT22;30418;51.45933468;7.33152330;2024-03-08T05:02:47;7.00;53.70
9544;DHT22;30418;51.45933468;7.33152330;2024-03-08T05:05:20;6.90;53.60
9544;DHT22;30418;51.45933468;7.33152330;2024-03-08T05:07:50;6.90;53.70
9544;DHT22;30418;51.45933468;7.33152330;2024-03-08T05:10:18;6.90;53.80
9544;DHT22;30418;51.45933468;7.33152330;2024-03-08T05:12:47;6.90;53.80
9544;DHT22;30418;51.45933468;7.33152330;2024-03-08T05:15:15;6.90;53.80
9544;DHT22;30418;51.45933468;7.33152330;2024-03-08T05:17:44;6.90;53.80
9544;DHT22;30418;51.45933468;7.33152330;2024-03-08T05:20:15;6.90;53.90
9544;DHT22;30418;51.45933468;7.33152330;2024-03-08T05:22:44;6.90;53.90
9544;DHT22;30418;51.45933468;7.33152330;2024-03-08T05:25:13;6.80;53.80
9544;DHT22;30418;51.45933468;7.33152330;2024-03-08T05:27:42;6.80;53.90
9544;DHT22;30418;51.45933468;7.33152330;2024-03-08T05:30:11;6.80;53.90
9544;DHT22;30418;51.45933468;7.33152330;2024-03-08T05:32:42;6.80;54.00
9544;DHT22;30418;51.45933468;7.33152330;2024-03-08T05:35:14;6.70;53.90
9544;DHT22;30418;51.45933468;7.33152330;2024-03-08T05:37:43;6.70;54.00
9544;DHT22;30418;51.45933468;7.33152330;2024-03-08T05:40:12;6.70;54.00
9544;DHT22;30418;51.45933468;7.33152330;2024-03-08T05:42:44;6.70;54.00
9544;DHT22;30418;51.45933468;7.33152330;2024-03-08T05:45:13;6.70;54.10
9544;DHT22;30418;51.45933468;7.33152330;2024-03-08T05:47:43;6.70;54.10
9544;DHT22;30418;51.45933468;7.33152330;2024-03-08T05:50:11;6.70;54.10
9544;DHT22;30418;51.45933468;7.33152330;2024-03-08T05:52:43;6.70;54.10
9544;DHT22;30418;51.45933468;7.33152330;2024-03-08T05:55:12;6.60;54.00
9544;DHT22;30418;51.45933468;7.33152330;2024-03-08T05:57:41;6.60;54.00
9544;DHT22;30418;51.45933468;7.33152330;2024-03-08T06:00:10;6.60;54.10
9544;DHT22;30418;51.45933468;7.33152330;2024-03-08T06:02:39;6.60;54.10
9544;DHT22;30418;51.45933468;7.33152330;2024-03-08T06:05:09;6.60;54.10
9544;DHT22;30418;51.45933468;7.33152330;2024-03-08T06:07:40;6.60;54.10
9544;DHT22;30418;51.45933468;7.33152330;2024-03-08T06:10:10;6.60;54.10
9544;DHT22;30418;51.45933468;7.33152330;2024-03-08T06:12:40;6.50;54.10
9544;DHT22;30418;51.45933468;7.33152330;2024-03-08T06:15:09;6.50;54.10
9544;DHT22;30418;51.45933468;7.33152330;2024-03-08T06:17:42;6.50;54.20
9544;DHT22;30418;51.45933468;7.33152330;2024-03-08T06:20:11;6.50;54.20
9544;DHT22;30418;51.45933468;7.33152330;2024-03-08T06:22:42;6.50;54.20
9544;DHT22;30418;51.45933468;7.33152330;2024-03-08T06:25:12;6.50;54.20
9544;DHT22;30418;51.45933468;7.33152330;2024-03-08T06:27:42;6.40;54.30
9544;DHT22;30418;51.45933468;7.33152330;2024-03-08T06:30:11;6.40;54.30
9544;DHT22;30418;51.45933468;7.33152330;2024-03-08T06:32:42;6.50;54.40
9544;DHT22;30418;51.45933468;7.33152330;2024-03-08T06:35:11;6.40;54.30
9544;DHT22;30418;51.45933468;7.33152330;2024-03-08T06:37:42;6.40;54.40
9544;DHT22;30418;51.45933468;7.33152330;2024-03-08T06:40:12;6.40;54.40
9544;DHT22;30418;51.45933468;7.33152330;2024-03-08T06:42:41;6.40;54.50
9544;DHT22;30418;51.45933468;7.33152330;2024-03-08T06:45:11;6.40;54.60
9544;DHT22;30418;51.45933468;7.33152330;2024-03-08T06:47:40;6.40;54.60
9544;DHT22;30418;51.45933468;7.33152330;2024-03-08T06:50:10;6.40;54.70
9544;DHT22;30418;51.45933468;7.33152330;2024-03-08T06:52:39;6.40;54.80
9544;DHT22;30418;51.45933468;7.33152330;2024-03-08T06:55:10;6.40;54.80
9544;DHT22;30418;51.45933468;7.33152330;2024-03-08T06:57:40;6.40;54.80
9544;DHT22;30418;51.45933468;7.33152330;2024-03-08T07:00:10;6.40;54.80
9544;DHT22;30418;51.45933468;7.33152330;2024-03-08T07:02:47;6.40;54.80
9544;DHT22;30418;51.45933468;7.33152330;2024-03-08T07:05:16;6.40;55.50
9544;DHT22;30418;51.45933468;7.33152330;2024-03-08T07:07:45;6.50;54.90
9544;DHT22;30418;51.45933468;7.33152330;2024-03-08T07:10:17;6.50;54.90
9544;DHT22;30418;51.45933468;7.33152330;2024-03-08T07:12:47;6.50;54.90
9544;DHT22;30418;51.45933468;7.33152330;2024-03-08T07:15:16;6.50;54.90
9544;DHT22;30418;51.45933468;7.33152330;2024-03-08T07:17:47;6.60;55.00
9544;DHT22;30418;51.45933468;7.33152330;2024-03-08T07:20:16;6.60;55.00
9544;DHT22;30418;51.45933468;7.33152330;2024-03-08T07:22:46;6.60;55.00
9544;DHT22;30418;51.45933468;7.33152330;2024-03-08T07:25:19;6.60;55.00
9544;DHT22;30418;51.45933468;7.33152330;2024-03-08T07:27:49;6.70;55.10
9544;DHT22;30418;51.45933468;7.33152330;2024-03-08T07:30:19;6.70;55.10
9544;DHT22;30418;51.45933468;7.33152330;2024-03-08T07:33:06;6.70;55.10
9544;DHT22;30418;51.45933468;7.33152330;2024-03-08T07:35:35;6.70;55.10
9544;DHT22;30418;51.45933468;7.33152330;2024-03-08T07:38:04;6.80;55.20
9544;DHT22;30418;51.45933468;7.33152330;2024-03-08T07:40:36;6.80;55.20
9544;DHT22;30418;51.45933468;7.33152330;2024-03-08T07:43:07;6.80;55.10
9544;DHT22;30418;51.45933468;7.33152330;2024-03-08T07:45:36;6.90;55.20
9544;DHT22;30418;51.45933468;7.33152330;2024-03-08T07:48:05;6.90;55.20
9544;DHT22;30418;51.45933468;7.33152330;2024-03-08T07:50:37;6.90;55.20
9544;DHT22;30418;51.45933468;7.33152330;2024-03-08T07:53:07;7.00;55.30
9544;DHT22;30418;51.45933468;7.33152330;2024-03-08T07:55:37;7.00;55.30
9544;DHT22;30418;51.45933468;7.33152330;2024-03-08T07:58:06;7.10;55.30
9544;DHT22;30418;51.45933468;7.33152330;2024-03-08T08:00:38;7.10;55.30
9544;DHT22;30418;51.45933468;7.33152330;2024-03-08T08:03:06;7.10;55.30
9544;DHT22;30418;51.45933468;7.33152330;2024-03-08T08:05:35;7.10;55.30
9544;DHT22;30418;51.45933468;7.33152330;2024-03-08T08:08:07;7.20;55.40
9544;DHT22;30418;51.45933468;7.33152330;2024-03-08T08:10:39;7.20;55.40
9544;DHT22;30418;51.45933468;7.33152330;2024-03-08T08:13:09;7.20;55.30
9544;DHT22;30418;51.45933468;7.33152330;2024-03-08T08:15:38;7.30;55.40
9544;DHT22;30418;51.45933468;7.33152330;2024-03-08T08:18:06;7.30;55.40
9544;DHT22;30418;51.45933468;7.33152330;2024-03-08T08:20:37;7.30;55.40
9544;DHT22;30418;51.45933468;7.33152330;2024-03-08T08:23:05;7.40;55.50
9544;DHT22;30418;51.45933468;7.33152330;2024-03-08T08:25:34;7.40;55.50
9544;DHT22;30418;51.45933468;7.33152330;2024-03-08T08:28:04;7.50;55.60
9544;DHT22;30418;51.45933468;7.33152330;2024-03-08T08:30:32;7.50;55.60
9544;DHT22;30418;51.45933468;7.33152330;2024-03-08T08:33:01;7.60;55.50
9544;DHT22;30418;51.45933468;7.33152330;2024-03-08T08:35:32;7.60;55.40
9544;DHT22;30418;51.45933468;7.33152330;2024-03-08T08:38:00;7.70;55.50
9544;DHT22;30418;51.45933468;7.33152330;2024-03-08T08:40:31;7.70;55.60
9544;DHT22;30418;51.45933468;7.33152330;2024-03-08T08:43:03;7.80;55.60
9544;DHT22;30418;51.45933468;7.33152330;2024-03-08T08:45:32;7.80;55.50
9544;DHT22;30418;51.45933468;7.33152330;2024-03-08T08:48:01;7.90;55.60
9544;DHT22;30418;51.45933468;7.33152330;2024-03-08T08:50:29;7.90;55.50
9544;DHT22;30418;51.45933468;7.33152330;2024-03-08T08:52:59;8.00;55.50
9544;DHT22;30418;51.45933468;7.33152330;2024-03-08T08:55:27;8.10;55.60
9544;DHT22;30418;51.45933468;7.33152330;2024-03-08T08:57:58;8.10;55.50
9544;DHT22;30418;51.45933468;7.33152330;2024-03-08T09:00:27;8.20;55.50
9544;DHT22;30418;51.45933468;7.33152330;2024-03-08T09:02:58;8.20;55.50
9544;DHT22;30418;51.45933468;7.33152330;2024-03-08T09:05:26;8.20;55.50
9544;DHT22;30418;51.45933468;7.33152330;2024-03-08T09:07:55;8.30;55.50
9544;DHT22;30418;51.45933468;7.33152330;2024-03-08T09:10:24;8.30;55.40
9544;DHT22;30418;51.45933468;7.33152330;2024-03-08T09:12:56;8.40;55.50
9544;DHT22;30418;51.45933468;7.33152330;2024-03-08T09:15:24;8.40;55.40
9544;DHT22;30418;51.45933468;7.33152330;2024-03-08T09:17:57;8.50;56.20
9544;DHT22;30418;51.45933468;7.33152330;2024-03-08T09:20:26;8.60;55.50
9544;DHT22;30418;51.45933468;7.33152330;2024-03-08T09:22:56;8.60;55.50
9544;DHT22;30418;51.45933468;7.33152330;2024-03-08T09:25:25;8.70;55.40
9544;DHT22;30418;51.45933468;7.33152330;2024-03-08T09:27:53;8.70;55.40
9544;DHT22;30418;51.45933468;7.33152330;2024-03-08T09:30:22;8.70;55.30
9544;DHT22;30418;51.45933468;7.33152330;2024-03-08T09:32:51;8.80;55.40
9544;DHT22;30418;51.45933468;7.33152330;2024-03-08T09:35:22;8.80;55.40
9544;DHT22;30418;51.45933468;7.33152330;2024-03-08T09:37:51;8.80;55.30
9544;DHT22;30418;51.45933468;7.33152330;2024-03-08T09:40:21;8.90;55.20
9544;DHT22;30418;51.45933468;7.33152330;2024-03-08T09:42:51;9.00;55.80
9544;DHT22;30418;51.45933468;7.33152330;2024-03-08T09:45:21;9.00;55.20
9544;DHT22;30418;51.45933468;7.33152330;2024-03-08T09:47:51;9.00;55.10
9544;DHT22;30418;51.45933468;7.33152330;2024-03-08T09:50:23;9.10;55.10
9544;DHT22;30418;51.45933468;7.33152330;2024-03-08T09:52:55;9.10;55.00
9544;DHT22;30418;51.45933468;7.33152330;2024-03-08T09:55:26;9.10;54.90
9544;DHT22;30418;51.45933468;7.33152330;2024-03-08T09:57:59;9.10;54.90
9544;DHT22;30418;51.45933468;7.33152330;2024-03-08T10:00:48;9.20;54.90
9544;DHT22;30418;51.45933468;7.33152330;2024-03-08T10:03:17;9.20;54.90
9544;DHT22;30418;51.45933468;7.33152330;2024-03-08T10:05:48;9.20;54.90
9544;DHT22;30418;51.45933468;7.33152330;2024-03-08T10:08:17;9.30;54.90
9544;DHT22;30418;51.45933468;7.33152330;2024-03-08T10:10:47;9.30;54.90
9544;DHT22;30418;51.45933468;7.33152330;2024-03-08T10:13:16;9.40;55.10
9544;DHT22;30418;51.45933468;7.33152330;2024-03-08T10:15:47;9.40;55.00
9544;DHT22;30418;51.45933468;7.33152330;2024-03-08T10:18:15;9.50;55.00
9544;DHT22;30418;51.45933468;7.33152330;2024-03-08T10:20:44;9.50;54.80
9544;DHT22;30418;51.45933468;7.33152330;2024-03-08T10:23:14;9.50;54.80
9544;DHT22;30418;51.45933468;7.33152330;2024-03-08T10:25:44;9.50;54.70
9544;DHT22;30418;51.45933468;7.33152330;2024-03-08T10:28:13;9.60;54.80
9544;DHT22;30418;51.45933468;7.33152330;2024-03-08T10:30:47;9.60;54.80
9544;DHT22;30418;51.45933468;7.33152330;2024-03-08T10:33:16;9.60;54.80
9544;DHT22;30418;51.45933468;7.33152330;2024-03-08T10:35:44;9.60;54.80
9544;DHT22;30418;51.45933468;7.33152330;2024-03-08T10:38:17;9.70;54.90
9544;DHT22;30418;51.45933468;7.33152330;2024-03-08T10:40:49;9.70;55.50
9544;DHT22;30418;51.45933468;7.33152330;2024-03-08T10:43:23;9.70;54.90
9544;DHT22;30418;51.45933468;7.33152330;2024-03-08T10:46:08;9.80;55.00
9544;DHT22;30418;51.45933468;7.33152330;2024-03-08T10:48:43;9.80;55.00
9544;DHT22;30418;51.45933468;7.33152330;2024-03-08T10:51:14;9.90;55.00
9544;DHT22;30418;51.45933468;7.33152330;2024-03-08T10:53:46;9.90;55.00
9544;DHT22;30418;51.45933468;7.33152330;2024-03-08T10:56:16;10.00;54.00
9544;DHT22;30418;51.45933468;7.33152330;2024-03-08T10:58:45;10.00;54.00
9544;DHT22;30418;51.45933468;7.33152330;2024-03-08T11:01:14;10.00;54.00
9544;DHT22;30418;51.45933468;7.33152330;2024-03-08T11:03:49;10.10;53.80
9544;DHT22;30418;51.45933468;7.33152330;2024-03-08T11:06:23;10.10;53.70
9544;DHT22;30418;51.45933468;7.33152330;2024-03-08T11:09:00;10.10;53.80
9544;DHT22;30418;51.45933468;7.33152330;2024-03-08T11:11:29;10.20;53.80
9544;DHT22;30418;51.45933468;7.33152330;2024-03-08T11:14:01;10.20;53.80
9544;DHT22;30418;51.45933468;7.33152330;2024-03-08T11:16:39;10.20;54.50
9544;DHT22;30418;51.45933468;7.33152330;2024-03-08T11:19:26;10.30;53.80
9544;DHT22;30418;51.45933468;7.33152330;2024-03-08T11:22:03;10.30;53.90
9544;DHT22;30418;51.45933468;7.33152330;2024-03-08T11:24:40;10.40;53.90
9544;DHT22;30418;51.45933468;7.33152330;2024-03-08T11:27:09;10.40;53.60
9544;DHT22;30418;51.45933468;7.33152330;2024-03-08T11:29:39;10.40;53.80
9544;DHT22;30418;51.45933468;7.33152330;2024-03-08T11:32:08;10.50;53.80
9544;DHT22;30418;51.45933468;7.33152330;2024-03-08T11:34:40;10.50;53.90
9544;DHT22;30418;51.45933468;7.33152330;2024-03-08T11:37:14;10.50;53.90
9544;DHT22;30418;51.45933468;7.33152330;2024-03-08T11:39:48;10.60;54.00
9544;DHT22;30418;51.45933468;7.33152330;2024-03-08T11:42:18;10.70;54.00
9544;DHT22;30418;51.45933468;7.33152330;2024-03-08T11:44:50;10.70;54.00
9544;DHT22;30418;51.45933468;7.33152330;2024-03-08T11:47:20;10.80;53.80
9544;DHT22;30418;51.45933468;7.33152330;2024-03-08T11:49:49;10.80;53.70
9544;DHT22;30418;51.45933468;7.33152330;2024-03-08T11:52:18;10.90;53.60
9544;DHT22;30418;51.45933468;7.33152330;2024-03-08T11:54:52;10.90;53.70
9544;DHT22;30418;51.45933468;7.33152330;2024-03-08T11:57:26;11.00;53.80
9544;DHT22;30418;51.45933468;7.33152330;2024-03-08T11:59:56;11.00;53.80
9544;DHT22;30418;51.45933468;7.33152330;2024-03-08T12:02:25;11.10;53.90
9544;DHT22;30418;51.45933468;7.33152330;2024-03-08T12:04:58;11.10;53.80
9544;DHT22;30418;51.45933468;7.33152330;2024-03-08T12:07:28;11.20;53.80
9544;DHT22;30418;51.45933468;7.33152330;2024-03-08T12:10:19;11.20;53.60
9544;DHT22;30418;51.45933468;7.33152330;2024-03-08T12:12:50;11.30;53.20
9544;DHT22;30418;51.45933468;7.33152330;2024-03-08T12:15:21;11.30;53.40
9544;DHT22;30418;51.45933468;7.33152330;2024-03-08T12:17:52;11.30;53.10
9544;DHT22;30418;51.45933468;7.33152330;2024-03-08T12:20:24;11.40;53.00
9544;DHT22;30418;51.45933468;7.33152330;2024-03-08T12:22:54;11.50;52.70
9544;DHT22;30418;51.45933468;7.33152330;2024-03-08T12:25:30;11.60;52.70
9544;DHT22;30418;51.45933468;7.33152330;2024-03-08T12:28:07;11.60;52.50
9544;DHT22;30418;51.45933468;7.33152330;2024-03-08T12:30:46;11.70;52.50
9544;DHT22;30418;51.45933468;7.33152330;2024-03-08T12:33:16;11.80;52.30
9544;DHT22;30418;51.45933468;7.33152330;2024-03-08T12:35:51;11.80;52.30
9544;DHT22;30418;51.45933468;7.33152330;2024-03-08T12:38:22;11.90;52.20
9544;DHT22;30418;51.45933468;7.33152330;2024-03-08T12:40:58;11.90;52.20
9544;DHT22;30418;51.45933468;7.33152330;2024-03-08T12:43:27;12.00;51.90
9544;DHT22;30418;51.45933468;7.33152330;2024-03-08T12:45:58;12.00;51.90
9544;DHT22;30418;51.45933468;7.33152330;2024-03-08T12:48:26;12.10;51.60
9544;DHT22;30418;51.45933468;7.33152330;2024-03-08T12:50:55;12.10;51.40
9544;DHT22;30418;51.45933468;7.33152330;2024-03-08T12:53:23;12.20;51.20
9544;DHT22;30418;51.45933468;7.33152330;2024-03-08T12:55:57;12.20;51.20
9544;DHT22;30418;51.45933468;7.33152330;2024-03-08T12:58:26;12.20;50.90
9544;DHT22;30418;51.45933468;7.33152330;2024-03-08T13:00:55;12.30;51.70
9544;DHT22;30418;51.45933468;7.33152330;2024-03-08T13:03:24;12.30;51.20
9544;DHT22;30418;51.45933468;7.33152330;2024-03-08T13:05:52;12.40;51.20
9544;DHT22;30418;51.45933468;7.33152330;2024-03-08T13:08:21;12.50;51.30
9544;DHT22;30418;51.45933468;7.33152330;2024-03-08T13:10:51;12.50;50.80
9544;DHT22;30418;51.45933468;7.33152330;2024-03-08T13:13:22;12.50;50.60
9544;DHT22;30418;51.45933468;7.33152330;2024-03-08T13:15:52;12.60;50.50
9544;DHT22;30418;51.45933468;7.33152330;2024-03-08T13:18:21;12.60;50.40
9544;DHT22;30418;51.45933468;7.33152330;2024-03-08T13:20:50;12.60;50.50
9544;DHT22;30418;51.45933468;7.33152330;2024-03-08T13:23:19;12.70;50.60
9544;DHT22;30418;51.45933468;7.33152330;2024-03-08T13:25:48;12.70;50.50
9544;DHT22;30418;51.45933468;7.33152330;2024-03-08T13:28:16;12.80;50.40
9544;DHT22;30418;51.45933468;7.33152330;2024-03-08T13:30:51;12.80;50.40
9544;DHT22;30418;51.45933468;7.33152330;2024-03-08T13:33:26;12.90;50.30
9544;DHT22;30418;51.45933468;7.33152330;2024-03-08T13:35:54;12.90;50.50
9544;DHT22;30418;51.45933468;7.33152330;2024-03-08T13:38:31;13.00;50.40
9544;DHT22;30418;51.45933468;7.33152330;2024-03-08T13:41:00;13.00;50.20
9544;DHT22;30418;51.45933468;7.33152330;2024-03-08T13:43:29;13.10;50.30
9544;DHT22;30418;51.45933468;7.33152330;2024-03-08T13:46:03;13.10;50.30
9544;DHT22;30418;51.45933468;7.33152330;2024-03-08T13:48:33;13.20;50.30
9544;DHT22;30418;51.45933468;7.33152330;2024-03-08T13:51:02;13.20;50.30
9544;DHT22;30418;51.45933468;7.33152330;2024-03-08T13:53:31;13.30;50.20
9544;DHT22;30418;51.45933468;7.33152330;2024-03-08T13:56:02;13.30;50.10
9544;DHT22;30418;51.45933468;7.33152330;2024-03-08T13:58:32;13.40;50.00
9544;DHT22;30418;51.45933468;7.33152330;2024-03-08T14:01:03;13.40;50.00